sensor_id;sensor_type;location;lat;lon;timestamp;pressure;altitude;pressure_sealevel;temperature;humidity
61710;BME280;47633;51.494;5.386;2023-06-22T00:01:52;101824.59;;;25.71;46.90
61710;BME280;47633;51.494;5.386;2023-06-22T00:04:17;101805.91;;;25.71;46.67
61710;BME280;47633;51.494;5.386;2023-06-22T00:06:42;101803.25;;;25.71;46.59
61710;BME280;47633;51.494;5.386;2023-06-22T00:09:08;101818.25;;;25.72;46.83
61710;BME280;47633;51.494;5.386;2023-06-22T00:11:35;101823.75;;;25.70;46.77
61710;BME280;47633;51.494;5.386;2023-06-22T00:14:01;101823.91;;;25.69;46.89
61710;BME280;47633;51.494;5.386;2023-06-22T00:16:26;101817.56;;;25.70;46.87
61710;BME280;47633;51.494;5.386;2023-06-22T00:18:51;101809.88;;;25.67;46.90
61710;BME280;47633;51.494;5.386;2023-06-22T00:21:16;101818.56;;;25.69;47.09
61710;BME280;47633;51.494;5.386;2023-06-22T00:23:42;101816.91;;;25.68;46.70
61710;BME280;47633;51.494;5.386;2023-06-22T00:26:08;101816.91;;;25.68;46.85
61710;BME280;47633;51.494;5.386;2023-06-22T00:28:33;101813.38;;;25.67;46.67
61710;BME280;47633;51.494;5.386;2023-06-22T00:30:59;101814.38;;;25.66;46.72
61710;BME280;47633;51.494;5.386;2023-06-22T00:33:25;101816.19;;;25.66;46.53
61710;BME280;47633;51.494;5.386;2023-06-22T00:35:51;101811.84;;;25.65;46.50
61710;BME280;47633;51.494;5.386;2023-06-22T00:38:18;101808.19;;;25.66;46.66
61710;BME280;47633;51.494;5.386;2023-06-22T00:40:43;101806.66;;;25.63;46.63
61710;BME280;47633;51.494;5.386;2023-06-22T00:43:09;101807.34;;;25.65;46.77
61710;BME280;47633;51.494;5.386;2023-06-22T00:45:34;101799.34;;;25.65;46.66
61710;BME280;47633;51.494;5.386;2023-06-22T00:48:00;101812.69;;;25.65;46.65
61710;BME280;47633;51.494;5.386;2023-06-22T00:50:30;101799.66;;;25.62;46.61
61710;BME280;47633;51.494;5.386;2023-06-22T00:53:00;101802.16;;;25.64;46.29
61710;BME280;47633;51.494;5.386;2023-06-22T00:55:26;101807.34;;;25.65;46.74
61710;BME280;47633;51.494;5.386;2023-06-22T00:57:53;101801.34;;;25.63;46.83
61710;BME280;47633;51.494;5.386;2023-06-22T01:00:24;101797.13;;;25.61;46.74
61710;BME280;47633;51.494;5.386;2023-06-22T01:02:52;101808.50;;;25.63;46.65
61710;BME280;47633;51.494;5.386;2023-06-22T01:05:21;101791.63;;;25.62;46.79
61710;BME280;47633;51.494;5.386;2023-06-22T01:08:14;101801.63;;;25.60;46.58
61710;BME280;47633;51.494;5.386;2023-06-22T01:10:43;101803.09;;;25.73;46.46
61710;BME280;47633;51.494;5.386;2023-06-22T01:13:32;101801.19;;;25.65;46.29
61710;BME280;47633;51.494;5.386;2023-06-22T01:16:03;101792.66;;;25.61;46.42
61710;BME280;47633;51.494;5.386;2023-06-22T01:18:31;101796.16;;;25.62;46.52
61710;BME280;47633;51.494;5.386;2023-06-22T01:20:58;101798.81;;;25.62;46.45
61710;BME280;47633;51.494;5.386;2023-06-22T01:26:43;101803.47;;;25.60;46.57
61710;BME280;47633;51.494;5.386;2023-06-22T01:29:17;101809.50;;;25.62;46.46
61710;BME280;47633;51.494;5.386;2023-06-22T01:31:45;101808.81;;;25.60;46.52
61710;BME280;47633;51.494;5.386;2023-06-22T01:34:11;101795.78;;;25.57;46.64
61710;BME280;47633;51.494;5.386;2023-06-22T01:36:38;101788.59;;;25.57;46.54
61710;BME280;47633;51.494;5.386;2023-06-22T01:39:05;101792.25;;;25.56;46.64
61710;BME280;47633;51.494;5.386;2023-06-22T01:41:34;101786.22;;;25.54;46.60
61710;BME280;47633;51.494;5.386;2023-06-22T01:44:00;101790.72;;;25.53;46.46
61710;BME280;47633;51.494;5.386;2023-06-22T01:46:26;101797.56;;;25.56;46.37
61710;BME280;47633;51.494;5.386;2023-06-22T01:48:52;101792.25;;;25.56;46.51
61710;BME280;47633;51.494;5.386;2023-06-22T01:51:18;101788.75;;;25.56;46.41
61710;BME280;47633;51.494;5.386;2023-06-22T01:53:43;101786.91;;;25.56;46.67
61710;BME280;47633;51.494;5.386;2023-06-22T01:56:09;101794.09;;;25.56;46.40
61710;BME280;47633;51.494;5.386;2023-06-22T01:58:37;101787.19;;;25.53;46.53
61710;BME280;47633;51.494;5.386;2023-06-22T02:01:10;101789.88;;;25.53;46.53
61710;BME280;47633;51.494;5.386;2023-06-22T02:03:53;101786.38;;;25.52;46.50
61710;BME280;47633;51.494;5.386;2023-06-22T02:06:30;101787.19;;;25.53;46.36
61710;BME280;47633;51.494;5.386;2023-06-22T02:09:02;101785.25;;;25.55;46.47
61710;BME280;47633;51.494;5.386;2023-06-22T02:11:29;101783.56;;;25.54;46.66
61710;BME280;47633;51.494;5.386;2023-06-22T02:13:57;101787.91;;;25.55;46.70
61710;BME280;47633;51.494;5.386;2023-06-22T02:16:23;101788.88;;;25.54;46.34
61710;BME280;47633;51.494;5.386;2023-06-22T02:18:49;101785.41;;;25.53;46.65
61710;BME280;47633;51.494;5.386;2023-06-22T02:21:18;101788.06;;;25.53;46.80
61710;BME280;47633;51.494;5.386;2023-06-22T02:23:43;101781.88;;;25.53;46.65
61710;BME280;47633;51.494;5.386;2023-06-22T02:26:09;101782.72;;;25.53;46.43
61710;BME280;47633;51.494;5.386;2023-06-22T02:28:35;101778.38;;;25.52;46.49
61710;BME280;47633;51.494;5.386;2023-06-22T02:31:00;101769.53;;;25.52;46.31
61710;BME280;47633;51.494;5.386;2023-06-22T02:33:25;101769.38;;;25.53;46.63
61710;BME280;47633;51.494;5.386;2023-06-22T02:35:50;101764.03;;;25.53;46.59
61710;BME280;47633;51.494;5.386;2023-06-22T02:38:16;101761.53;;;25.52;46.61
61710;BME280;47633;51.494;5.386;2023-06-22T02:40:42;101759.00;;;25.50;46.33
61710;BME280;47633;51.494;5.386;2023-06-22T02:43:08;101758.31;;;25.48;46.30
61710;BME280;47633;51.494;5.386;2023-06-22T02:45:33;101765.84;;;25.53;46.58
61710;BME280;47633;51.494;5.386;2023-06-22T02:47:58;101761.38;;;25.53;46.86
61710;BME280;47633;51.494;5.386;2023-06-22T02:50:24;101755.31;;;25.51;46.63
61710;BME280;47633;51.494;5.386;2023-06-22T02:52:49;101753.66;;;25.50;46.46
61710;BME280;47633;51.494;5.386;2023-06-22T02:55:14;101759.84;;;25.51;46.91
61710;BME280;47633;51.494;5.386;2023-06-22T02:57:40;101753.66;;;25.50;46.50
61710;BME280;47633;51.494;5.386;2023-06-22T03:00:09;101753.81;;;25.49;46.62
61710;BME280;47633;51.494;5.386;2023-06-22T03:02:47;101750.13;;;25.50;46.69
61710;BME280;47633;51.494;5.386;2023-06-22T03:05:13;101748.47;;;25.49;46.77
61710;BME280;47633;51.494;5.386;2023-06-22T03:07:43;101732.63;;;25.47;46.51
61710;BME280;47633;51.494;5.386;2023-06-22T03:10:10;101736.13;;;25.48;46.66
61710;BME280;47633;51.494;5.386;2023-06-22T03:12:39;101741.31;;;25.49;46.71
61710;BME280;47633;51.494;5.386;2023-06-22T03:15:07;101735.16;;;25.49;46.86
61710;BME280;47633;51.494;5.386;2023-06-22T03:17:33;101729.97;;;25.47;46.84
61710;BME280;47633;51.494;5.386;2023-06-22T03:19:59;101718.91;;;25.42;46.46
61710;BME280;47633;51.494;5.386;2023-06-22T03:22:25;101728.13;;;25.48;46.68
61710;BME280;47633;51.494;5.386;2023-06-22T03:24:50;101731.63;;;25.48;46.65
61710;BME280;47633;51.494;5.386;2023-06-22T03:27:15;101721.81;;;25.49;46.51
61710;BME280;47633;51.494;5.386;2023-06-22T03:29:42;101722.09;;;25.46;46.48
61710;BME280;47633;51.494;5.386;2023-06-22T03:32:07;101725.44;;;25.48;46.63
61710;BME280;47633;51.494;5.386;2023-06-22T03:34:33;101721.13;;;25.47;46.77
61710;BME280;47633;51.494;5.386;2023-06-22T03:36:59;101726.63;;;25.45;46.73
61710;BME280;47633;51.494;5.386;2023-06-22T03:39:25;101725.75;;;25.45;46.50
61710;BME280;47633;51.494;5.386;2023-06-22T03:41:50;101720.41;;;25.45;46.63
61710;BME280;47633;51.494;5.386;2023-06-22T03:44:16;101710.03;;;25.42;46.80
61710;BME280;47633;51.494;5.386;2023-06-22T03:46:41;101719.28;;;25.47;46.82
61710;BME280;47633;51.494;5.386;2023-06-22T03:49:06;101711.44;;;25.46;46.63
61710;BME280;47633;51.494;5.386;2023-06-22T03:51:32;101712.56;;;25.43;46.62
61710;BME280;47633;51.494;5.386;2023-06-22T03:53:58;101719.44;;;25.46;46.69
61710;BME280;47633;51.494;5.386;2023-06-22T03:56:23;101708.09;;;25.44;46.67
61710;BME280;47633;51.494;5.386;2023-06-22T03:58:48;101701.88;;;25.43;46.86
61710;BME280;47633;51.494;5.386;2023-06-22T04:01:14;101705.41;;;25.44;46.71
61710;BME280;47633;51.494;5.386;2023-06-22T04:03:40;101716.25;;;25.42;46.86
61710;BME280;47633;51.494;5.386;2023-06-22T04:06:06;101714.41;;;25.43;46.46
61710;BME280;47633;51.494;5.386;2023-06-22T04:08:31;101709.91;;;25.43;46.59
61710;BME280;47633;51.494;5.386;2023-06-22T04:10:56;101708.25;;;25.42;46.34
61710;BME280;47633;51.494;5.386;2023-06-22T04:13:22;101711.06;;;25.41;46.70
61710;BME280;47633;51.494;5.386;2023-06-22T04:15:47;101712.72;;;25.42;46.56
61710;BME280;47633;51.494;5.386;2023-06-22T04:18:12;101702.91;;;25.42;46.68
61710;BME280;47633;51.494;5.386;2023-06-22T04:20:38;101701.38;;;25.40;46.71
61710;BME280;47633;51.494;5.386;2023-06-22T04:23:04;101710.91;;;25.42;46.86
61710;BME280;47633;51.494;5.386;2023-06-22T04:25:29;101707.69;;;25.39;46.62
61710;BME280;47633;51.494;5.386;2023-06-22T04:27:54;101717.22;;;25.41;46.74
61710;BME280;47633;51.494;5.386;2023-06-22T04:30:20;101714.56;;;25.41;46.72
61710;BME280;47633;51.494;5.386;2023-06-22T04:32:45;101714.69;;;25.40;46.79
61710;BME280;47633;51.494;5.386;2023-06-22T04:35:11;101715.38;;;25.42;46.81
61710;BME280;47633;51.494;5.386;2023-06-22T04:37:37;101713.88;;;25.39;46.67
61710;BME280;47633;51.494;5.386;2023-06-22T04:40:03;101721.88;;;25.39;46.76
61710;BME280;47633;51.494;5.386;2023-06-22T04:42:30;101714.84;;;25.38;46.75
61710;BME280;47633;51.494;5.386;2023-06-22T04:44:57;101716.69;;;25.38;46.73
61710;BME280;47633;51.494;5.386;2023-06-22T04:47:22;101712.03;;;25.40;46.51
61710;BME280;47633;51.494;5.386;2023-06-22T04:49:47;101722.56;;;25.41;46.74
61710;BME280;47633;51.494;5.386;2023-06-22T04:52:13;101725.22;;;25.41;46.69
61710;BME280;47633;51.494;5.386;2023-06-22T04:54:40;101713.88;;;25.39;46.43
61710;BME280;47633;51.494;5.386;2023-06-22T04:57:13;101713.88;;;25.39;46.89
61710;BME280;47633;51.494;5.386;2023-06-22T04:59:39;101713.88;;;25.39;46.87
61710;BME280;47633;51.494;5.386;2023-06-22T05:02:06;101715.53;;;25.40;46.68
61710;BME280;47633;51.494;5.386;2023-06-22T05:04:32;101723.53;;;25.40;46.62
61710;BME280;47633;51.494;5.386;2023-06-22T05:06:59;101716.53;;;25.39;46.91
61710;BME280;47633;51.494;5.386;2023-06-22T05:09:25;101707.69;;;25.39;46.83
61710;BME280;47633;51.494;5.386;2023-06-22T05:11:51;101708.53;;;25.39;46.77
61710;BME280;47633;51.494;5.386;2023-06-22T05:14:17;101710.50;;;25.37;46.68
61710;BME280;47633;51.494;5.386;2023-06-22T05:16:44;101715.69;;;25.39;46.83
61710;BME280;47633;51.494;5.386;2023-06-22T05:19:09;101714.84;;;25.38;46.83
61710;BME280;47633;51.494;5.386;2023-06-22T05:21:35;101713.88;;;25.39;46.83
61710;BME280;47633;51.494;5.386;2023-06-22T05:24:00;101715.69;;;25.39;46.86
61710;BME280;47633;51.494;5.386;2023-06-22T05:26:28;101708.69;;;25.38;46.74
61710;BME280;47633;51.494;5.386;2023-06-22T05:28:54;101709.53;;;25.38;46.61
61710;BME280;47633;51.494;5.386;2023-06-22T05:31:19;101714.03;;;25.38;46.84
61710;BME280;47633;51.494;5.386;2023-06-22T05:33:46;101706.16;;;25.36;46.81
61710;BME280;47633;51.494;5.386;2023-06-22T05:36:12;101707.84;;;25.37;46.82
61710;BME280;47633;51.494;5.386;2023-06-22T05:38:39;101702.50;;;25.37;46.90
61710;BME280;47633;51.494;5.386;2023-06-22T05:41:04;101702.34;;;25.39;46.95
61710;BME280;47633;51.494;5.386;2023-06-22T05:43:30;101703.19;;;25.39;46.80
61710;BME280;47633;51.494;5.386;2023-06-22T05:45:56;101704.34;;;25.37;47.07
61710;BME280;47633;51.494;5.386;2023-06-22T05:48:21;101712.03;;;25.40;46.96
61710;BME280;47633;51.494;5.386;2023-06-22T05:50:46;101711.22;;;25.39;46.88
61710;BME280;47633;51.494;5.386;2023-06-22T05:53:12;101713.00;;;25.39;46.70
61710;BME280;47633;51.494;5.386;2023-06-22T05:55:37;101714.84;;;25.38;47.09
61710;BME280;47633;51.494;5.386;2023-06-22T05:58:02;101702.50;;;25.37;46.69
61710;BME280;47633;51.494;5.386;2023-06-22T06:00:31;101709.38;;;25.40;47.30
61710;BME280;47633;51.494;5.386;2023-06-22T06:02:56;101703.34;;;25.38;47.09
61710;BME280;47633;51.494;5.386;2023-06-22T06:05:22;101701.13;;;25.33;46.99
61710;BME280;47633;51.494;5.386;2023-06-22T06:07:49;101712.19;;;25.38;47.26
61710;BME280;47633;51.494;5.386;2023-06-22T06:10:14;101705.16;;;25.37;47.20
61710;BME280;47633;51.494;5.386;2023-06-22T06:12:40;101704.19;;;25.38;47.40
61710;BME280;47633;51.494;5.386;2023-06-22T06:15:05;101698.03;;;25.38;47.07
61710;BME280;47633;51.494;5.386;2023-06-22T06:17:31;101700.69;;;25.38;47.11
61710;BME280;47633;51.494;5.386;2023-06-22T06:19:56;101689.16;;;25.37;47.19
61710;BME280;47633;51.494;5.386;2023-06-22T06:22:21;101698.16;;;25.36;47.70
61710;BME280;47633;51.494;5.386;2023-06-22T06:24:49;101705.31;;;25.35;47.84
61710;BME280;47633;51.494;5.386;2023-06-22T06:27:15;101709.44;;;25.30;48.34
61710;BME280;47633;51.494;5.386;2023-06-22T06:29:41;101702.00;;;25.24;48.09
61710;BME280;47633;51.494;5.386;2023-06-22T06:32:06;101708.63;;;25.20;48.20
61710;BME280;47633;51.494;5.386;2023-06-22T06:34:32;101695.75;;;25.15;48.47
61710;BME280;47633;51.494;5.386;2023-06-22T06:36:57;101698.47;;;25.05;48.81
61710;BME280;47633;51.494;5.386;2023-06-22T06:39:22;101708.91;;;24.98;49.33
61710;BME280;47633;51.494;5.386;2023-06-22T06:41:48;101698.31;;;24.89;49.52
61710;BME280;47633;51.494;5.386;2023-06-22T06:44:13;101709.69;;;24.81;49.66
61710;BME280;47633;51.494;5.386;2023-06-22T06:46:38;101704.97;;;24.75;50.00
61710;BME280;47633;51.494;5.386;2023-06-22T06:49:04;101707.25;;;24.70;50.05
61710;BME280;47633;51.494;5.386;2023-06-22T06:51:29;101711.16;;;24.66;50.56
61710;BME280;47633;51.494;5.386;2023-06-22T06:53:54;101710.78;;;24.60;50.58
61710;BME280;47633;51.494;5.386;2023-06-22T06:56:20;101708.53;;;24.56;50.70
61710;BME280;47633;51.494;5.386;2023-06-22T06:58:45;101699.16;;;24.52;51.04
61710;BME280;47633;51.494;5.386;2023-06-22T07:01:12;101700.56;;;24.46;51.09
61710;BME280;47633;51.494;5.386;2023-06-22T07:03:37;101704.25;;;24.45;51.25
61710;BME280;47633;51.494;5.386;2023-06-22T07:06:03;101706.19;;;24.43;51.37
61710;BME280;47633;51.494;5.386;2023-06-22T07:08:28;101704.53;;;24.42;51.57
61710;BME280;47633;51.494;5.386;2023-06-22T07:10:54;101690.09;;;24.35;51.78
61710;BME280;47633;51.494;5.386;2023-06-22T07:13:19;101705.78;;;24.38;51.80
61710;BME280;47633;51.494;5.386;2023-06-22T07:15:44;101705.25;;;24.34;52.00
61710;BME280;47633;51.494;5.386;2023-06-22T07:18:10;101707.34;;;24.31;51.78
61710;BME280;47633;51.494;5.386;2023-06-22T07:20:35;101703.72;;;24.32;52.21
61710;BME280;47633;51.494;5.386;2023-06-22T07:23:00;101698.53;;;24.30;52.65
61710;BME280;47633;51.494;5.386;2023-06-22T07:25:26;101703.84;;;24.30;53.24
61710;BME280;47633;51.494;5.386;2023-06-22T07:28:02;101694.78;;;24.23;53.96
61710;BME280;47633;51.494;5.386;2023-06-22T07:30:29;101699.97;;;24.24;54.02
61710;BME280;47633;51.494;5.386;2023-06-22T07:32:54;101701.75;;;24.24;54.61
61710;BME280;47633;51.494;5.386;2023-06-22T07:35:19;101692.41;;;24.20;55.41
61710;BME280;47633;51.494;5.386;2023-06-22T07:37:45;101683.00;;;24.16;56.19
61710;BME280;47633;51.494;5.386;2023-06-22T07:40:10;101675.44;;;24.11;56.74
61710;BME280;47633;51.494;5.386;2023-06-22T07:42:36;101671.28;;;24.08;57.64
61710;BME280;47633;51.494;5.386;2023-06-22T07:45:03;101668.59;;;24.08;58.06
61710;BME280;47633;51.494;5.386;2023-06-22T07:47:29;101661.31;;;24.11;57.64
61710;BME280;47633;51.494;5.386;2023-06-22T07:49:58;101653.47;;;24.09;57.70
61710;BME280;47633;51.494;5.386;2023-06-22T07:52:26;101649.81;;;24.10;58.12
61710;BME280;47633;51.494;5.386;2023-06-22T07:54:51;101651.19;;;24.14;58.67
61710;BME280;47633;51.494;5.386;2023-06-22T07:57:17;101631.03;;;24.12;58.55
61710;BME280;47633;51.494;5.386;2023-06-22T07:59:42;101630.03;;;24.13;58.27
61710;BME280;47633;51.494;5.386;2023-06-22T08:02:07;101618.56;;;24.12;58.18
61710;BME280;47633;51.494;5.386;2023-06-22T08:04:34;101621.06;;;24.14;57.28
61710;BME280;47633;51.494;5.386;2023-06-22T08:07:00;101616.44;;;24.16;57.68
61710;BME280;47633;51.494;5.386;2023-06-22T08:09:28;101612.50;;;24.20;57.04
61710;BME280;47633;51.494;5.386;2023-06-22T08:11:53;101600.84;;;24.21;57.48
61710;BME280;47633;51.494;5.386;2023-06-22T08:14:20;101599.72;;;24.23;56.56
61710;BME280;47633;51.494;5.386;2023-06-22T08:16:46;101598.59;;;24.26;55.97
61710;BME280;47633;51.494;5.386;2023-06-22T08:19:11;101599.00;;;24.31;55.99
61710;BME280;47633;51.494;5.386;2023-06-22T08:21:36;101591.94;;;24.40;55.42
61710;BME280;47633;51.494;5.386;2023-06-22T08:24:03;101590.66;;;24.44;55.52
61710;BME280;47633;51.494;5.386;2023-06-22T08:26:28;101589.50;;;24.47;55.03
61710;BME280;47633;51.494;5.386;2023-06-22T08:28:53;101589.06;;;24.51;55.26
61710;BME280;47633;51.494;5.386;2023-06-22T08:31:19;101588.38;;;24.49;55.65
61710;BME280;47633;51.494;5.386;2023-06-22T08:33:44;101593.56;;;24.51;54.87
61710;BME280;47633;51.494;5.386;2023-06-22T08:36:11;101595.25;;;24.52;54.86
61710;BME280;47633;51.494;5.386;2023-06-22T08:38:38;101600.28;;;24.55;54.64
61710;BME280;47633;51.494;5.386;2023-06-22T08:41:03;101598.19;;;24.58;55.01
61710;BME280;47633;51.494;5.386;2023-06-22T08:43:29;101597.88;;;24.61;55.33
61710;BME280;47633;51.494;5.386;2023-06-22T08:45:54;101594.63;;;24.68;55.29
61710;BME280;47633;51.494;5.386;2023-06-22T08:48:19;101590.78;;;24.70;55.42
61710;BME280;47633;51.494;5.386;2023-06-22T08:50:45;101590.19;;;24.76;55.73
61710;BME280;47633;51.494;5.386;2023-06-22T08:53:10;101580.41;;;24.77;55.54
61710;BME280;47633;51.494;5.386;2023-06-22T08:55:35;101580.94;;;24.80;55.45
61710;BME280;47633;51.494;5.386;2023-06-22T08:58:01;101581.31;;;24.86;55.36
61710;BME280;47633;51.494;5.386;2023-06-22T09:00:26;101573.47;;;24.84;55.15
61710;BME280;47633;51.494;5.386;2023-06-22T09:02:54;101568.66;;;24.88;55.33
61710;BME280;47633;51.494;5.386;2023-06-22T09:05:24;101570.19;;;24.90;54.91
61710;BME280;47633;51.494;5.386;2023-06-22T09:07:50;101566.53;;;24.91;54.99
61710;BME280;47633;51.494;5.386;2023-06-22T09:10:15;101568.03;;;24.94;54.44
61710;BME280;47633;51.494;5.386;2023-06-22T09:12:41;101563.56;;;24.94;54.65
61710;BME280;47633;51.494;5.386;2023-06-22T09:15:07;101556.41;;;24.95;54.24
61710;BME280;47633;51.494;5.386;2023-06-22T09:17:33;101556.41;;;24.95;54.32
61710;BME280;47633;51.494;5.386;2023-06-22T09:19:59;101565.75;;;24.99;54.21
61710;BME280;47633;51.494;5.386;2023-06-22T09:22:24;101555.94;;;24.99;53.90
61710;BME280;47633;51.494;5.386;2023-06-22T09:24:54;101562.09;;;25.00;53.78
61710;BME280;47633;51.494;5.386;2023-06-22T09:27:19;101555.94;;;24.99;53.93
61710;BME280;47633;51.494;5.386;2023-06-22T09:29:44;101562.78;;;25.02;53.79
61710;BME280;47633;51.494;5.386;2023-06-22T09:32:10;101561.94;;;25.02;53.58
61710;BME280;47633;51.494;5.386;2023-06-22T09:34:35;101562.94;;;25.01;53.50
61710;BME280;47633;51.494;5.386;2023-06-22T09:37:01;101558.97;;;25.05;53.47
61710;BME280;47633;51.494;5.386;2023-06-22T09:39:26;101566.16;;;25.04;53.24
61710;BME280;47633;51.494;5.386;2023-06-22T09:41:51;101560.66;;;25.06;53.09
61710;BME280;47633;51.494;5.386;2023-06-22T09:44:17;101557.13;;;25.05;52.89
61710;BME280;47633;51.494;5.386;2023-06-22T09:46:42;101557.00;;;25.07;52.76
61710;BME280;47633;51.494;5.386;2023-06-22T09:49:08;101548.16;;;25.06;52.77
61710;BME280;47633;51.494;5.386;2023-06-22T09:51:33;101544.81;;;25.04;52.51
61710;BME280;47633;51.494;5.386;2023-06-22T09:53:59;101554.31;;;25.07;52.71
61710;BME280;47633;51.494;5.386;2023-06-22T09:56:24;101540.47;;;25.03;52.71
61710;BME280;47633;51.494;5.386;2023-06-22T09:58:49;101542.00;;;25.06;52.56
61710;BME280;47633;51.494;5.386;2023-06-22T10:01:18;101543.81;;;25.05;52.11
61710;BME280;47633;51.494;5.386;2023-06-22T10:03:43;101549.84;;;25.07;52.03
61710;BME280;47633;51.494;5.386;2023-06-22T10:06:08;101549.69;;;25.09;52.11
61710;BME280;47633;51.494;5.386;2023-06-22T10:08:34;101546.31;;;25.07;52.42
61710;BME280;47633;51.494;5.386;2023-06-22T10:11:00;101548.00;;;25.08;52.10
61710;BME280;47633;51.494;5.386;2023-06-22T10:13:26;101545.19;;;25.09;52.10
61710;BME280;47633;51.494;5.386;2023-06-22T10:15:51;101547.84;;;25.09;52.25
61710;BME280;47633;51.494;5.386;2023-06-22T10:18:20;101544.66;;;25.06;52.07
61710;BME280;47633;51.494;5.386;2023-06-22T10:20:48;101547.19;;;25.07;51.91
61710;BME280;47633;51.494;5.386;2023-06-22T10:23:15;101550.53;;;25.09;51.84
61710;BME280;47633;51.494;5.386;2023-06-22T10:25:40;101553.03;;;25.11;51.53
61710;BME280;47633;51.494;5.386;2023-06-22T10:28:06;101551.50;;;25.08;51.80
61710;BME280;47633;51.494;5.386;2023-06-22T10:30:32;101562.88;;;25.10;52.06
61710;BME280;47633;51.494;5.386;2023-06-22T10:32:57;101567.03;;;25.13;52.17
61710;BME280;47633;51.494;5.386;2023-06-22T10:35:23;101558.38;;;25.11;51.78
61710;BME280;47633;51.494;5.386;2023-06-22T10:37:48;101563.56;;;25.12;51.85
61710;BME280;47633;51.494;5.386;2023-06-22T10:40:15;101568.88;;;25.12;52.13
61710;BME280;47633;51.494;5.386;2023-06-22T10:42:41;101575.03;;;25.13;52.23
61710;BME280;47633;51.494;5.386;2023-06-22T10:45:07;101584.72;;;25.14;52.35
61710;BME280;47633;51.494;5.386;2023-06-22T10:47:33;101591.72;;;25.15;52.31
61710;BME280;47633;51.494;5.386;2023-06-22T10:49:58;101591.56;;;25.16;52.69
61710;BME280;47633;51.494;5.386;2023-06-22T10:52:24;101595.09;;;25.17;52.88
61710;BME280;47633;51.494;5.386;2023-06-22T10:54:49;101590.59;;;25.17;52.71
61710;BME280;47633;51.494;5.386;2023-06-22T10:57:15;101591.41;;;25.18;52.81
61710;BME280;47633;51.494;5.386;2023-06-22T10:59:40;101593.09;;;25.19;52.80
61710;BME280;47633;51.494;5.386;2023-06-22T11:02:06;101585.09;;;25.19;52.89
61710;BME280;47633;51.494;5.386;2023-06-22T11:04:31;101593.25;;;25.17;53.08
61710;BME280;47633;51.494;5.386;2023-06-22T11:06:56;101599.25;;;25.20;53.22
61710;BME280;47633;51.494;5.386;2023-06-22T11:09:22;101594.78;;;25.20;53.72
61710;BME280;47633;51.494;5.386;2023-06-22T11:11:48;101590.28;;;25.21;53.56
61710;BME280;47633;51.494;5.386;2023-06-22T11:14:14;101592.28;;;25.19;53.86
61710;BME280;47633;51.494;5.386;2023-06-22T11:16:40;101590.28;;;25.21;53.86
61710;BME280;47633;51.494;5.386;2023-06-22T11:19:05;101591.25;;;25.20;53.88
61710;BME280;47633;51.494;5.386;2023-06-22T11:21:31;101593.78;;;25.21;54.17
61710;BME280;47633;51.494;5.386;2023-06-22T11:23:57;101588.75;;;25.18;54.04
61710;BME280;47633;51.494;5.386;2023-06-22T11:26:23;101598.28;;;25.21;54.10
61710;BME280;47633;51.494;5.386;2023-06-22T11:28:49;101594.78;;;25.20;54.53
61710;BME280;47633;51.494;5.386;2023-06-22T11:31:14;101600.81;;;25.22;54.44
61710;BME280;47633;51.494;5.386;2023-06-22T11:33:39;101605.31;;;25.22;54.74
61710;BME280;47633;51.494;5.386;2023-06-22T11:36:05;101606.13;;;25.22;54.40
61710;BME280;47633;51.494;5.386;2023-06-22T11:38:30;101608.13;;;25.20;54.54
61710;BME280;47633;51.494;5.386;2023-06-22T11:40:58;101611.63;;;25.21;54.51
61710;BME280;47633;51.494;5.386;2023-06-22T11:43:23;101603.47;;;25.22;54.72
61710;BME280;47633;51.494;5.386;2023-06-22T11:45:49;101582.28;;;25.21;54.64
61710;BME280;47633;51.494;5.386;2023-06-22T11:48:14;101562.63;;;25.22;54.53
61710;BME280;47633;51.494;5.386;2023-06-22T11:50:39;101558.94;;;25.23;54.55
61710;BME280;47633;51.494;5.386;2023-06-22T11:53:05;101538.63;;;25.22;54.52
61710;BME280;47633;51.494;5.386;2023-06-22T11:55:30;101538.63;;;25.22;54.67
61710;BME280;47633;51.494;5.386;2023-06-22T11:57:57;101528.13;;;25.20;54.42
61710;BME280;47633;51.494;5.386;2023-06-22T12:00:25;101528.78;;;25.22;54.13
61710;BME280;47633;51.494;5.386;2023-06-22T12:02:51;101531.44;;;25.22;54.25
61710;BME280;47633;51.494;5.386;2023-06-22T12:05:19;101526.28;;;25.21;54.36
61710;BME280;47633;51.494;5.386;2023-06-22T12:07:44;101530.63;;;25.22;54.49
61710;BME280;47633;51.494;5.386;2023-06-22T12:10:10;101525.13;;;25.23;54.41
61710;BME280;47633;51.494;5.386;2023-06-22T12:12:35;101518.94;;;25.23;54.34
61710;BME280;47633;51.494;5.386;2023-06-22T12:15:00;101518.13;;;25.22;54.28
61710;BME280;47633;51.494;5.386;2023-06-22T12:17:28;101514.63;;;25.22;54.28
61710;BME280;47633;51.494;5.386;2023-06-22T12:19:54;101508.28;;;25.23;54.47
61710;BME280;47633;51.494;5.386;2023-06-22T12:22:19;101502.94;;;25.23;54.65
61710;BME280;47633;51.494;5.386;2023-06-22T12:24:44;101511.78;;;25.23;54.66
61710;BME280;47633;51.494;5.386;2023-06-22T12:27:10;101510.94;;;25.23;54.61
61710;BME280;47633;51.494;5.386;2023-06-22T12:29:35;101516.97;;;25.25;54.65
61710;BME280;47633;51.494;5.386;2023-06-22T12:32:00;101517.97;;;25.24;54.85
61710;BME280;47633;51.494;5.386;2023-06-22T12:34:25;101524.97;;;25.25;54.54
61710;BME280;47633;51.494;5.386;2023-06-22T12:36:51;101517.81;;;25.25;54.77
61710;BME280;47633;51.494;5.386;2023-06-22T12:39:19;101508.97;;;25.25;54.73
61710;BME280;47633;51.494;5.386;2023-06-22T12:41:44;101509.97;;;25.24;54.70
61710;BME280;47633;51.494;5.386;2023-06-22T12:44:09;101507.28;;;25.24;54.64
61710;BME280;47633;51.494;5.386;2023-06-22T12:46:35;101500.97;;;25.25;54.59
61710;BME280;47633;51.494;5.386;2023-06-22T12:49:03;101500.97;;;25.25;54.31